Doran, Virginia
Current Conditions -  °F | °C
As of 3:55 PM on Tuesday 21 Oct 2014 (Local Time) from KJFZ Reporting Station
Overcast Overcast  
Wind Chill: 55°   Ceiling: 5000
Heat Index: 55°   Visibility: 10mi
Dew Point: 40°   Wind: 12mph
Humidity: 59%   Direction: 300°WNW
Pressure: 29.97"   Gusts: 17mph
Location:  37.09°N, 81.83°W
Report Text: KJFZ 211955Z AUTO 30010G15KT 10SM SCT031 OVC050 13/05 A2997 RMK AO2 T01250047
Loading
Personal Weather Stations






























Interactive Weather Map
Tropical Storm Tracking
New forecast layout! Learn more

10-Day Weather Forecast

Advertisements
Track Severe Weather on mobile